createdAt,value
2022-09-14T00:02:00.339Z,16.26
2022-09-14T00:04:27.748Z,16.26
2022-09-14T00:06:54.765Z,16.27
2022-09-14T00:09:23.278Z,16.29
2022-09-14T00:11:51.210Z,16.29
2022-09-14T00:14:19.045Z,16.30
2022-09-14T00:16:46.175Z,16.31
2022-09-14T00:19:16.985Z,16.31
2022-09-14T00:21:44.037Z,16.30
2022-09-14T00:24:11.733Z,16.30
2022-09-14T00:26:38.797Z,16.27
2022-09-14T00:29:05.880Z,16.26
2022-09-14T00:31:34.739Z,16.26
2022-09-14T00:34:02.702Z,16.27
2022-09-14T00:36:30.638Z,16.25
2022-09-14T00:38:58.064Z,16.24
2022-09-14T00:41:27.295Z,16.24
2022-09-14T00:43:56.074Z,16.24
2022-09-14T00:46:23.443Z,16.22
2022-09-14T00:48:50.642Z,16.21
2022-09-14T00:51:18.834Z,16.21
2022-09-14T00:53:46.475Z,16.19
2022-09-14T00:56:14.287Z,16.18
2022-09-14T00:58:42.543Z,16.14
2022-09-14T01:01:10.375Z,16.14
2022-09-14T01:03:37.659Z,16.14
2022-09-14T01:06:13.865Z,16.13
2022-09-14T01:08:59.398Z,16.13
2022-09-14T01:11:48.356Z,16.11
2022-09-14T01:14:23.743Z,16.12
2022-09-14T01:17:02.431Z,16.11
2022-09-14T01:19:38.766Z,16.10
2022-09-14T01:22:10.682Z,16.09
2022-09-14T01:24:43.149Z,16.09
2022-09-14T01:27:10.140Z,16.08
2022-09-14T01:29:44.429Z,16.09
2022-09-14T01:32:25.833Z,16.09
2022-09-14T01:34:57.859Z,16.09
2022-09-14T01:37:31.411Z,16.09
2022-09-14T01:40:02.398Z,16.06
2022-09-14T01:42:31.525Z,16.08
2022-09-14T01:45:01.167Z,16.12
2022-09-14T01:47:34.464Z,16.12
2022-09-14T01:50:06.026Z,16.11
2022-09-14T01:52:45.026Z,16.09
2022-09-14T01:55:34.031Z,16.10
2022-09-14T01:58:05.344Z,16.10
2022-09-14T02:00:33.489Z,16.10
2022-09-14T02:03:05.164Z,16.10
2022-09-14T02:05:44.923Z,16.12
2022-09-14T02:08:12.061Z,16.11
2022-09-14T02:10:39.809Z,16.10
2022-09-14T02:13:08.010Z,16.11
2022-09-14T02:15:35.851Z,16.13
2022-09-14T02:18:03.373Z,16.13
2022-09-14T02:20:34.151Z,16.12
2022-09-14T02:23:01.312Z,16.13
2022-09-14T02:25:28.460Z,16.14
2022-09-14T02:27:55.466Z,16.13
2022-09-14T02:30:22.546Z,16.13
2022-09-14T02:33:03.913Z,16.13
2022-09-14T02:35:37.589Z,16.14
2022-09-14T02:38:11.231Z,16.12
2022-09-14T02:40:41.219Z,16.11
2022-09-14T02:43:14.015Z,16.10
2022-09-14T02:45:50.469Z,16.10
2022-09-14T02:48:17.508Z,16.05
2022-09-14T02:50:44.726Z,16.02
2022-09-14T02:53:15.769Z,16.03
2022-09-14T02:55:52.906Z,16.02
2022-09-14T02:58:19.885Z,16.00
2022-09-14T03:00:47.891Z,16.02
2022-09-14T03:03:16.013Z,16.03
2022-09-14T03:05:43.187Z,16.02
2022-09-14T03:08:10.806Z,16.03
2022-09-14T03:10:38.490Z,16.03
2022-09-14T03:13:05.545Z,16.02
2022-09-14T03:15:32.752Z,16.02
2022-09-14T03:17:59.931Z,16.02
2022-09-14T03:20:28.345Z,16.03
2022-09-14T03:22:55.488Z,16.05
2022-09-14T03:25:25.251Z,16.02
2022-09-14T03:27:53.628Z,16.03
2022-09-14T03:30:20.761Z,16.03
2022-09-14T03:32:48.198Z,16.02
2022-09-14T03:35:15.806Z,16.05
2022-09-14T03:37:43.700Z,16.07
2022-09-14T03:40:11.782Z,16.02
2022-09-14T03:42:44.007Z,16.03
2022-09-14T03:45:12.138Z,16.03
2022-09-14T03:47:39.443Z,16.05
2022-09-14T03:50:07.600Z,16.07
2022-09-14T03:52:35.018Z,16.08
2022-09-14T03:55:02.328Z,16.04
2022-09-14T03:57:29.494Z,16.02
2022-09-14T03:59:56.793Z,16.00
2022-09-14T04:02:24.325Z,16.00
2022-09-14T04:04:52.761Z,16.00
2022-09-14T04:07:20.872Z,15.98
2022-09-14T04:09:48.622Z,15.96
2022-09-14T04:12:16.586Z,15.94
2022-09-14T04:14:43.890Z,15.95
2022-09-14T04:17:11.122Z,15.97
2022-09-14T04:19:41.497Z,15.95
2022-09-14T04:22:09.548Z,15.97
2022-09-14T04:24:38.233Z,15.96
2022-09-14T04:27:06.318Z,15.93
2022-09-14T04:29:34.330Z,15.92
2022-09-14T04:32:04.331Z,15.91
2022-09-14T04:34:31.558Z,15.91
2022-09-14T04:36:58.615Z,15.89
2022-09-14T04:39:26.364Z,15.89
2022-09-14T04:41:53.427Z,15.86
2022-09-14T04:44:20.437Z,15.81
2022-09-14T04:46:47.665Z,15.80
2022-09-14T04:49:16.565Z,15.80
2022-09-14T04:51:43.704Z,15.72
2022-09-14T04:54:13.018Z,15.67
2022-09-14T04:56:40.488Z,15.69
2022-09-14T04:59:07.853Z,15.71
2022-09-14T05:01:36.275Z,15.70
2022-09-14T05:04:04.219Z,15.66
2022-09-14T05:06:32.587Z,15.67
2022-09-14T05:09:00.397Z,15.69
2022-09-14T05:11:29.069Z,15.71
2022-09-14T05:13:57.300Z,15.71
2022-09-14T05:16:26.278Z,15.67
2022-09-14T05:18:54.675Z,15.64
2022-09-14T05:21:22.664Z,15.58
2022-09-14T05:23:54.179Z,15.54
2022-09-14T05:26:21.608Z,15.54
2022-09-14T05:28:52.922Z,15.51
2022-09-14T05:31:20.621Z,15.52
2022-09-14T05:33:47.855Z,15.51
2022-09-14T05:36:15.425Z,15.48
2022-09-14T05:38:42.519Z,15.49
2022-09-14T05:41:13.580Z,15.46
2022-09-14T05:43:40.998Z,15.47
2022-09-14T05:46:10.276Z,15.45
2022-09-14T05:48:37.928Z,15.45
2022-09-14T05:51:10.744Z,15.43
2022-09-14T05:53:37.843Z,15.41
2022-09-14T05:56:06.708Z,15.43
2022-09-14T05:58:34.601Z,15.42
2022-09-14T06:01:07.769Z,15.39
2022-09-14T06:03:35.247Z,15.43
2022-09-14T06:06:03.163Z,15.44
2022-09-14T06:08:30.322Z,15.41
2022-09-14T06:10:57.396Z,15.43
2022-09-14T06:13:24.735Z,15.41
2022-09-14T06:15:51.758Z,15.39
2022-09-14T06:18:18.757Z,15.39
2022-09-14T06:20:50.333Z,15.37
2022-09-14T06:23:17.606Z,15.35
2022-09-14T06:25:44.590Z,15.41
2022-09-14T06:28:11.630Z,15.46
2022-09-14T06:30:41.951Z,15.44
2022-09-14T06:33:09.052Z,15.40
2022-09-14T06:35:36.179Z,15.41
2022-09-14T06:38:03.720Z,15.43
2022-09-14T06:40:30.990Z,15.46
2022-09-14T06:43:02.533Z,15.47
2022-09-14T06:45:30.795Z,15.43
2022-09-14T06:47:58.528Z,15.39
2022-09-14T06:50:25.661Z,15.38
2022-09-14T06:52:52.861Z,15.41
2022-09-14T06:55:20.164Z,15.41
2022-09-14T06:57:47.902Z,15.45
2022-09-14T07:00:15.113Z,15.48
2022-09-14T07:02:42.476Z,15.48
2022-09-14T07:05:09.938Z,15.51
2022-09-14T07:07:36.982Z,15.47
2022-09-14T07:10:04.346Z,15.48
2022-09-14T07:12:31.450Z,15.45
2022-09-14T07:14:58.463Z,15.41
2022-09-14T07:17:25.495Z,15.43
2022-09-14T07:19:52.583Z,15.44
2022-09-14T07:22:19.655Z,15.44
2022-09-14T07:24:46.702Z,15.44
2022-09-14T07:27:13.787Z,15.41
2022-09-14T07:29:43.338Z,15.40
2022-09-14T07:32:11.701Z,15.38
2022-09-14T07:34:38.788Z,15.38
2022-09-14T07:37:05.970Z,15.40
2022-09-14T07:39:33.017Z,15.46
2022-09-14T07:42:00.387Z,15.51
2022-09-14T07:44:27.388Z,15.54
2022-09-14T07:46:54.471Z,15.62
2022-09-14T07:49:22.146Z,15.73
2022-09-14T07:51:49.233Z,15.86
2022-09-14T07:54:17.331Z,16.00
2022-09-14T07:56:45.376Z,16.13
2022-09-14T08:02:00.477Z,16.22
2022-09-14T08:04:27.548Z,16.25
2022-09-14T08:06:54.548Z,16.30
2022-09-14T08:09:21.593Z,16.34
2022-09-14T08:11:48.578Z,16.36
2022-09-14T08:14:15.550Z,16.42
2022-09-14T08:16:42.778Z,16.44
2022-09-14T08:19:15.635Z,16.46
2022-09-14T08:21:46.951Z,16.52
2022-09-14T08:24:16.078Z,16.55
2022-09-14T08:26:43.489Z,16.59
2022-09-14T08:29:12.107Z,16.64
2022-09-14T08:31:39.461Z,16.70
2022-09-14T08:34:07.400Z,16.76
2022-09-14T08:36:35.799Z,16.87
2022-09-14T08:39:03.084Z,16.94
2022-09-14T08:41:37.861Z,16.96
2022-09-14T08:44:13.721Z,17.02
2022-09-14T08:46:44.443Z,17.08
2022-09-14T08:49:16.873Z,17.12
2022-09-14T08:51:43.925Z,17.17
2022-09-14T08:54:11.289Z,17.20
2022-09-14T08:56:41.331Z,17.25
2022-09-14T08:59:14.349Z,17.38
2022-09-14T09:01:50.203Z,17.49
2022-09-14T09:04:24.954Z,17.60
2022-09-14T09:06:51.933Z,17.68
2022-09-14T09:09:25.827Z,17.75
2022-09-14T09:11:54.178Z,17.89
2022-09-14T09:14:23.944Z,17.94
2022-09-14T09:16:53.598Z,17.95
2022-09-14T09:19:28.454Z,17.98
2022-09-14T09:21:56.349Z,17.98
2022-09-14T09:24:23.376Z,17.96
2022-09-14T09:26:50.462Z,18.05
2022-09-14T09:29:17.606Z,18.08
2022-09-14T09:32:04.310Z,18.07
2022-09-14T09:34:50.931Z,18.05
2022-09-14T09:37:41.160Z,17.98
2022-09-14T09:40:15.579Z,18.01
2022-09-14T09:43:02.716Z,18.05
2022-09-14T09:45:48.136Z,18.13
2022-09-14T09:48:16.100Z,18.25
2022-09-14T09:50:50.701Z,18.44
2022-09-14T09:53:20.909Z,18.49
2022-09-14T09:55:49.341Z,18.54
2022-09-14T09:58:25.385Z,18.60
2022-09-14T10:00:57.315Z,18.63
2022-09-14T10:03:32.307Z,18.93
2022-09-14T10:06:04.537Z,19.12
2022-09-14T10:08:35.118Z,19.16
2022-09-14T10:11:03.478Z,19.35
2022-09-14T10:13:36.454Z,19.53
2022-09-14T10:16:06.515Z,19.55
2022-09-14T10:18:33.650Z,19.60
2022-09-14T10:21:03.454Z,19.64
2022-09-14T10:23:31.498Z,19.73
2022-09-14T10:26:18.895Z,19.87
2022-09-14T10:28:47.353Z,19.99
2022-09-14T10:31:19.352Z,19.99
2022-09-14T10:33:47.568Z,19.93
2022-09-14T10:36:24.379Z,19.86
2022-09-14T10:38:58.632Z,19.92
2022-09-14T10:41:31.224Z,19.92
2022-09-14T10:44:06.195Z,19.92
2022-09-14T10:46:46.532Z,19.98
2022-09-14T10:49:19.792Z,20.04
2022-09-14T10:51:52.996Z,19.98
2022-09-14T10:54:29.327Z,20.07
2022-09-14T10:57:06.030Z,20.15
2022-09-14T10:59:59.457Z,20.39
2022-09-14T11:02:46.773Z,20.72
2022-09-14T11:05:18.993Z,20.71
2022-09-14T11:07:53.187Z,20.69
2022-09-14T11:10:26.492Z,20.66
2022-09-14T11:12:53.514Z,20.71
2022-09-14T11:15:24.707Z,20.72
2022-09-14T11:17:58.030Z,20.74
2022-09-14T11:20:41.954Z,20.89
2022-09-14T11:23:16.219Z,20.94
2022-09-14T11:25:48.688Z,20.95
2022-09-14T11:28:21.722Z,20.98
2022-09-14T11:30:53.135Z,21.07
2022-09-14T11:33:24.071Z,21.21
2022-09-14T11:35:56.889Z,21.34
2022-09-14T11:38:28.609Z,21.35
2022-09-14T11:41:15.983Z,21.34
2022-09-14T11:43:49.441Z,21.34
2022-09-14T11:46:20.611Z,21.29
2022-09-14T11:48:52.244Z,21.41
2022-09-14T11:51:39.613Z,21.57
2022-09-14T11:54:17.553Z,21.67
2022-09-14T11:56:47.956Z,21.53
2022-09-14T11:59:33.943Z,21.52
2022-09-14T12:02:19.900Z,21.53
2022-09-14T12:05:05.599Z,21.58
2022-09-14T12:07:47.844Z,21.56
2022-09-14T12:10:15.156Z,21.57
2022-09-14T12:12:42.192Z,21.59
2022-09-14T12:15:15.296Z,21.56
2022-09-14T12:17:42.704Z,21.61
2022-09-14T12:20:28.927Z,21.55
2022-09-14T12:23:15.001Z,21.57
2022-09-14T12:25:53.710Z,21.51
2022-09-14T12:28:30.383Z,21.52
2022-09-14T12:30:57.497Z,21.57
2022-09-14T12:33:31.030Z,21.57
2022-09-14T12:36:16.656Z,21.62
2022-09-14T12:38:49.432Z,21.71
2022-09-14T12:41:19.293Z,21.74
2022-09-14T12:43:47.313Z,21.76
2022-09-14T12:46:20.485Z,21.79
2022-09-14T12:48:47.625Z,21.80
2022-09-14T12:51:30.305Z,21.80
2022-09-14T12:54:06.237Z,21.79
2022-09-14T12:56:36.400Z,21.80
2022-09-14T12:59:20.686Z,21.84
2022-09-14T13:01:48.952Z,21.89
2022-09-14T13:04:26.003Z,21.93
2022-09-14T13:06:54.053Z,21.90
2022-09-14T13:09:22.792Z,21.87
2022-09-14T13:11:54.309Z,21.94
2022-09-14T13:14:23.410Z,21.89
2022-09-14T13:16:51.900Z,21.85
2022-09-14T13:19:26.465Z,21.88
2022-09-14T13:21:54.585Z,21.81
2022-09-14T13:24:23.567Z,21.86
2022-09-14T13:26:50.770Z,21.91
2022-09-14T13:29:17.836Z,21.93
2022-09-14T13:31:45.268Z,21.95
2022-09-14T13:34:19.462Z,21.97
2022-09-14T13:36:46.686Z,21.98
2022-09-14T13:39:21.489Z,22.00
2022-09-14T13:41:48.760Z,22.03
2022-09-14T13:44:16.367Z,22.04
2022-09-14T13:46:43.476Z,22.10
2022-09-14T13:49:12.476Z,22.12
2022-09-14T13:51:39.517Z,22.08
2022-09-14T13:54:17.726Z,22.08
2022-09-14T13:56:44.804Z,22.06
2022-09-14T13:59:14.879Z,22.06
2022-09-14T14:01:43.766Z,22.10
2022-09-14T14:04:29.502Z,22.09
2022-09-14T14:07:05.277Z,22.04
2022-09-14T14:09:58.753Z,21.97
2022-09-14T14:12:25.877Z,22.00
2022-09-14T14:14:54.106Z,22.05
2022-09-14T14:17:27.231Z,22.02
2022-09-14T14:19:55.860Z,22.01
2022-09-14T14:22:26.140Z,22.05
2022-09-14T14:25:12.986Z,22.07
2022-09-14T14:27:44.917Z,22.09
2022-09-14T14:30:13.987Z,22.10
2022-09-14T14:32:41.059Z,22.09
2022-09-14T14:35:14.789Z,22.08
2022-09-14T14:37:41.807Z,22.08
2022-09-14T14:40:11.380Z,22.04
2022-09-14T14:42:39.345Z,22.01
2022-09-14T14:45:07.057Z,22.02
2022-09-14T14:47:34.058Z,22.04
2022-09-14T14:50:01.326Z,22.03
2022-09-14T14:52:28.410Z,22.06
2022-09-14T14:54:56.195Z,22.07
2022-09-14T15:06:53.164Z,21.99
2022-09-14T15:09:25.202Z,21.87
2022-09-14T15:11:54.442Z,21.77
2022-09-14T15:14:26.715Z,21.67
2022-09-14T15:16:57.910Z,21.55
2022-09-14T15:19:25.910Z,21.43
2022-09-14T15:21:55.277Z,21.16
2022-09-14T15:24:25.945Z,20.72
2022-09-14T15:26:54.393Z,20.44
2022-09-14T15:29:22.057Z,20.32
2022-09-14T15:31:49.466Z,20.18
2022-09-14T15:34:16.671Z,20.09
2022-09-14T15:36:47.790Z,20.13
2022-09-14T15:39:15.042Z,20.18
2022-09-14T15:41:42.510Z,20.17
2022-09-14T15:44:11.552Z,20.18
2022-09-14T15:46:40.146Z,20.26
2022-09-14T15:49:09.138Z,20.09
2022-09-14T15:51:36.388Z,20.03
2022-09-14T15:54:03.777Z,20.02
2022-09-14T15:56:30.949Z,19.90
2022-09-14T15:58:59.553Z,19.81
2022-09-14T16:01:27.196Z,19.69
2022-09-14T16:04:01.888Z,19.67
2022-09-14T16:06:29.322Z,19.60
2022-09-14T16:08:57.614Z,19.53
2022-09-14T16:11:24.720Z,19.49
2022-09-14T16:13:51.854Z,19.44
2022-09-14T16:16:19.796Z,19.41
2022-09-14T16:18:47.792Z,19.41
2022-09-14T16:21:16.277Z,19.33
2022-09-14T16:23:44.645Z,19.30
2022-09-14T16:26:13.705Z,19.33
2022-09-14T16:28:41.459Z,19.34
2022-09-14T16:31:10.311Z,19.33
2022-09-14T16:33:40.573Z,19.30
2022-09-14T16:36:09.413Z,19.30
2022-09-14T16:38:37.170Z,19.28
2022-09-14T16:41:05.052Z,19.28
2022-09-14T16:43:32.579Z,19.24
2022-09-14T16:46:00.958Z,19.26
2022-09-14T16:48:28.096Z,19.24
2022-09-14T16:50:55.485Z,19.17
2022-09-14T16:53:22.586Z,19.19
2022-09-14T16:55:49.930Z,19.18
2022-09-14T16:58:17.373Z,19.14
2022-09-14T17:00:44.653Z,19.14
2022-09-14T17:03:11.752Z,19.13
2022-09-14T17:05:38.775Z,19.13
2022-09-14T17:08:05.821Z,19.04
2022-09-14T17:10:33.798Z,19.00
2022-09-14T17:13:00.846Z,18.98
2022-09-14T17:15:27.962Z,18.92
2022-09-14T17:17:55.061Z,18.90
2022-09-14T17:20:22.684Z,18.90
2022-09-14T17:22:49.792Z,18.90
2022-09-14T17:25:17.117Z,18.90
2022-09-14T17:27:44.239Z,18.89
2022-09-14T17:30:11.612Z,18.84
2022-09-14T17:32:38.656Z,18.76
2022-09-14T17:35:06.063Z,18.57
2022-09-14T17:37:33.157Z,18.54
2022-09-14T17:40:01.586Z,18.57
2022-09-14T17:42:28.743Z,18.60
2022-09-14T17:44:55.773Z,18.59
2022-09-14T17:47:22.801Z,18.55
2022-09-14T17:49:49.790Z,18.50
2022-09-14T17:52:16.868Z,18.45
2022-09-14T17:54:43.895Z,18.44
2022-09-14T17:57:10.924Z,18.41
2022-09-14T17:59:37.981Z,18.30
2022-09-14T18:02:05.075Z,18.23
2022-09-14T18:04:32.089Z,18.23
2022-09-14T18:06:59.136Z,18.25
2022-09-14T18:09:26.131Z,18.25
2022-09-14T18:11:55.906Z,18.17
2022-09-14T18:14:23.565Z,18.15
2022-09-14T18:16:50.635Z,18.16
2022-09-14T18:19:17.712Z,18.16
2022-09-14T18:21:48.968Z,18.14
2022-09-14T18:24:19.157Z,18.10
2022-09-14T18:26:46.321Z,18.09
2022-09-14T18:29:14.096Z,18.10
2022-09-14T18:31:41.434Z,18.05
2022-09-14T18:34:08.929Z,18.05
2022-09-14T18:36:35.964Z,17.98
2022-09-14T18:39:02.954Z,17.97
2022-09-14T18:41:31.277Z,17.98
2022-09-14T18:43:59.004Z,17.99
2022-09-14T18:46:28.443Z,17.94
2022-09-14T18:48:57.544Z,17.92
2022-09-14T18:51:25.001Z,17.87
2022-09-14T18:53:56.314Z,17.86
2022-09-14T18:56:24.092Z,17.82
2022-09-14T18:58:51.248Z,17.81
2022-09-14T19:01:18.459Z,17.80
2022-09-14T19:03:45.579Z,17.77
2022-09-14T19:06:13.616Z,17.75
2022-09-14T19:08:40.957Z,17.73
2022-09-14T19:11:09.557Z,17.70
2022-09-14T19:13:36.937Z,17.67
2022-09-14T19:16:08.076Z,17.63
2022-09-14T19:18:35.717Z,17.62
2022-09-14T19:21:06.885Z,17.60
2022-09-14T19:23:35.039Z,17.58
2022-09-14T19:26:06.135Z,17.58
2022-09-14T19:28:33.645Z,17.57
2022-09-14T19:31:04.895Z,17.56
2022-09-14T19:33:32.211Z,17.55
2022-09-14T19:36:06.266Z,17.53
2022-09-14T19:38:33.462Z,17.50
2022-09-14T19:41:00.484Z,17.46
2022-09-14T19:43:27.857Z,17.47
2022-09-14T19:45:54.981Z,17.49
2022-09-14T19:48:22.050Z,17.48
2022-09-14T19:50:49.139Z,17.47
2022-09-14T19:53:16.234Z,17.45
2022-09-14T19:55:44.851Z,17.42
2022-09-14T19:58:12.951Z,17.38
2022-09-14T20:00:41.064Z,17.31
2022-09-14T20:03:08.280Z,17.30
2022-09-14T20:05:35.346Z,17.25
2022-09-14T20:08:02.710Z,17.21
2022-09-14T20:10:30.780Z,17.19
2022-09-14T20:12:57.761Z,17.16
2022-09-14T20:15:24.807Z,17.13
2022-09-14T20:17:53.572Z,17.13
2022-09-14T20:20:20.633Z,17.08
2022-09-14T20:22:47.917Z,17.05
2022-09-14T20:25:15.099Z,17.04
2022-09-14T20:27:42.137Z,17.04
2022-09-14T20:30:09.434Z,17.07
2022-09-14T20:32:36.474Z,17.08
2022-09-14T20:35:03.593Z,17.09
2022-09-14T20:37:30.672Z,17.08
2022-09-14T20:39:57.678Z,17.03
2022-09-14T20:42:24.739Z,16.99
2022-09-14T20:44:51.752Z,16.95
2022-09-14T20:47:18.944Z,16.89
2022-09-14T20:49:45.952Z,16.82
2022-09-14T20:52:12.996Z,16.79
2022-09-14T20:54:40.082Z,16.77
2022-09-14T20:57:07.214Z,16.71
2022-09-14T20:59:34.286Z,16.60
2022-09-14T21:02:05.368Z,16.60
2022-09-14T21:04:33.913Z,16.61
2022-09-14T21:07:01.062Z,16.57
2022-09-14T21:09:29.094Z,16.56
2022-09-14T21:11:56.237Z,16.53
2022-09-14T21:14:23.503Z,16.53
2022-09-14T21:16:52.702Z,16.50
2022-09-14T21:19:20.752Z,16.41
2022-09-14T21:21:48.500Z,16.43
2022-09-14T21:24:16.480Z,16.41
2022-09-14T21:26:44.077Z,16.42
2022-09-14T21:29:12.920Z,16.39
2022-09-14T21:31:39.951Z,16.33
2022-09-14T21:34:07.719Z,16.31
2022-09-14T21:36:36.485Z,16.32
2022-09-14T21:39:05.773Z,16.23
2022-09-14T21:41:33.181Z,16.18
2022-09-14T21:44:00.478Z,16.22
2022-09-14T21:46:27.542Z,16.20
2022-09-14T21:48:55.803Z,16.17
2022-09-14T21:51:24.641Z,16.17
2022-09-14T21:53:51.706Z,16.17
2022-09-14T21:56:19.822Z,16.15
2022-09-14T21:58:53.701Z,16.18
2022-09-14T22:01:21.636Z,16.16
2022-09-14T22:03:51.418Z,16.18
2022-09-14T22:06:19.447Z,16.18
2022-09-14T22:08:46.514Z,16.17
2022-09-14T22:11:15.043Z,16.12
2022-09-14T22:13:42.342Z,16.12
2022-09-14T22:16:10.739Z,16.11
2022-09-14T22:18:38.809Z,16.07
2022-09-14T22:21:06.495Z,16.03
2022-09-14T22:23:34.589Z,15.96
2022-09-14T22:26:05.421Z,15.98
2022-09-14T22:28:32.665Z,15.93
2022-09-14T22:30:59.721Z,15.89
2022-09-14T22:33:27.475Z,15.87
2022-09-14T22:36:00.434Z,15.84
2022-09-14T22:38:28.683Z,15.83
2022-09-14T22:41:00.459Z,15.83
2022-09-14T22:43:27.861Z,15.82
2022-09-14T22:45:55.493Z,15.80
2022-09-14T22:48:23.097Z,15.83
2022-09-14T22:50:51.724Z,15.82
2022-09-14T22:53:20.854Z,15.83
2022-09-14T22:55:47.981Z,15.83
2022-09-14T22:58:16.631Z,15.81
2022-09-14T23:00:44.028Z,15.85
2022-09-14T23:03:11.209Z,15.83
2022-09-14T23:05:39.037Z,15.77
2022-09-14T23:08:07.029Z,15.80
2022-09-14T23:10:37.625Z,15.83
2022-09-14T23:13:04.667Z,15.80
2022-09-14T23:15:32.455Z,15.81
2022-09-14T23:17:59.515Z,15.82
2022-09-14T23:20:26.663Z,15.82
2022-09-14T23:22:53.733Z,15.83
2022-09-14T23:25:20.798Z,15.79
2022-09-14T23:27:47.805Z,15.81
2022-09-14T23:30:14.891Z,15.84
2022-09-14T23:32:41.913Z,15.82
2022-09-14T23:35:09.097Z,15.83
2022-09-14T23:37:36.125Z,15.82
2022-09-14T23:40:03.705Z,15.85
2022-09-14T23:42:30.883Z,15.85
2022-09-14T23:44:57.914Z,15.86
2022-09-14T23:47:25.129Z,15.88
2022-09-14T23:49:52.588Z,15.85
2022-09-14T23:52:19.598Z,15.86
2022-09-14T23:54:46.582Z,15.88
2022-09-14T23:57:13.594Z,15.90
2022-09-14T23:59:40.602Z,15.89
